KHRX

Details ICAO KHRX
Name HEREFORD MUNI
Region United States
Timezone America/Chicago (UTC-5.0)
Plans Departing 2
Arriving 1
Stats Elevation 3,785 ft / 1,154 m (AMSL)
Location 34.857591° -102.327335°
Runways 2
Magnetic Variation 6.430° E
Sunrise 2018-05-21 11:43:22 UTC / 2018-05-21 06:43:22 Local
Sunset 2018-05-22 01:51:19 UTC / 2018-05-21 20:51:19 Local
Advertisement - Login to hide

Runways

ID Width Length Bearing (true) Bearing (mag) Surface Threshold Offset Overrun Length
03 75 ft / 23 m 5,391 ft / 1,643 m 35.73° 29.30° Asphalt 0 ft / 0 m 0 ft / 0 m
14 135 ft / 41 m 3,813 ft / 1,162 m 151.32° 144.89° Grass 0 ft / 0 m 0 ft / 0 m
21 75 ft / 23 m 5,391 ft / 1,643 m 215.74° 209.31° Asphalt 0 ft / 0 m 0 ft / 0 m
32 135 ft / 41 m 3,813 ft / 1,162 m 331.32° 324.89° Grass 0 ft / 0 m 0 ft / 0 m

Map

Weather


0- 5 10 15 20 25 30 35+ Temperature / ° C

Clouds and Precipitation
Forecast for 2018-05-21 06:00 UTC. Updated 4 hours ago

Ground ~20,000 ft ~40,000 ft Winds

METAR

KHRX 210835Z AUTO 03004KT 7SM CLR 12/11 A3012 RMK AO2 T01190110

TAF

Not found

Frequencies

Unicom 122.80 MHz CTAF/UNICOM
Approach 121.15 MHz AMARILLO APP/DEP
Approach 119.50 MHz AMARILLO APP/DEP
Warning: Do not use this data for real-world aviation or navigation. No guarantee of current accuracy is given.